createdAt,value
2023-04-27T00:00:16.790Z,101806.84
2023-04-27T00:02:45.240Z,101812.22
2023-04-27T00:05:13.528Z,101807.00
2023-04-27T00:07:41.962Z,101803.41
2023-04-27T00:10:11.078Z,101805.94
2023-04-27T00:12:39.129Z,101808.53
2023-04-27T00:15:08.185Z,101811.25
2023-04-27T00:17:37.552Z,101810.31
2023-04-27T00:20:12.000Z,101806.72
2023-04-27T00:22:40.034Z,101804.47
2023-04-27T00:25:08.778Z,101803.63
2023-04-27T00:27:36.769Z,101803.63
2023-04-27T00:30:05.269Z,101800.81
2023-04-27T00:32:33.197Z,101800.88
2023-04-27T00:35:02.618Z,101795.75
2023-04-27T00:37:30.518Z,101802.75
2023-04-27T00:39:58.432Z,101797.56
2023-04-27T00:42:26.764Z,101797.00
2023-04-27T00:44:54.670Z,101793.56
2023-04-27T00:47:22.695Z,101801.47
2023-04-27T00:49:51.046Z,101804.00
2023-04-27T00:52:20.395Z,101798.81
2023-04-27T00:54:51.589Z,101803.25
2023-04-27T00:57:19.835Z,101804.00
2023-04-27T00:59:48.230Z,101811.19
2023-04-27T01:02:16.934Z,101809.41
2023-04-27T01:04:45.430Z,101814.72
2023-04-27T01:07:13.380Z,101820.09
2023-04-27T01:09:42.669Z,101818.19
2023-04-27T01:12:10.587Z,101819.09
2023-04-27T01:14:38.565Z,101811.91
2023-04-27T01:17:07.149Z,101810.97
2023-04-27T01:19:36.274Z,101812.91
2023-04-27T01:22:04.252Z,101819.94
2023-04-27T01:24:36.789Z,101812.94
2023-04-27T01:27:05.310Z,101828.06
2023-04-27T01:29:33.280Z,101825.47
2023-04-27T01:32:01.307Z,101824.75
2023-04-27T01:34:29.176Z,101831.88
2023-04-27T01:36:57.217Z,101835.53
2023-04-27T01:39:25.575Z,101831.97
2023-04-27T01:41:56.659Z,101840.75
2023-04-27T01:44:26.306Z,101834.69
2023-04-27T01:46:54.255Z,101834.69
2023-04-27T01:49:22.228Z,101839.09
2023-04-27T01:51:51.675Z,101830.28
2023-04-27T01:54:19.779Z,101839.34
2023-04-27T01:56:49.861Z,101842.59
2023-04-27T01:59:19.556Z,101846.91
2023-04-27T02:01:48.095Z,101849.63
2023-04-27T02:04:16.734Z,101857.72
2023-04-27T02:06:44.913Z,101865.53
2023-04-27T02:09:13.118Z,101869.94
2023-04-27T02:11:41.338Z,101867.16
2023-04-27T02:14:09.474Z,101873.44
2023-04-27T02:16:39.146Z,101871.53
2023-04-27T02:19:09.715Z,101882.97
2023-04-27T02:21:38.301Z,101876.06
2023-04-27T02:24:06.777Z,101879.50
2023-04-27T02:26:34.818Z,101874.63
2023-04-27T02:29:03.799Z,101881.66
2023-04-27T02:31:32.595Z,101877.13
2023-04-27T02:34:02.069Z,101868.91
2023-04-27T02:36:30.143Z,101878.84
2023-04-27T02:38:58.183Z,101873.56
2023-04-27T02:41:28.244Z,101873.31
2023-04-27T02:43:56.535Z,101868.50
2023-04-27T02:46:25.012Z,101869.38
2023-04-27T02:48:53.153Z,101867.59
2023-04-27T02:51:22.425Z,101873.69
2023-04-27T02:53:50.428Z,101866.56
2023-04-27T02:56:18.445Z,101863.84
2023-04-27T02:58:48.025Z,101874.50
2023-04-27T03:01:17.258Z,101875.22
2023-04-27T03:03:47.697Z,101866.56
2023-04-27T03:06:16.520Z,101872.91
2023-04-27T03:08:46.066Z,101867.84
2023-04-27T03:11:14.089Z,101865.94
2023-04-27T03:13:42.921Z,101866.72
2023-04-27T03:16:12.694Z,101864.13
2023-04-27T03:18:41.367Z,101861.59
2023-04-27T03:21:10.162Z,101866.16
2023-04-27T03:23:38.212Z,101867.78
2023-04-27T03:26:11.889Z,101871.38
2023-04-27T03:28:42.284Z,101866.28
2023-04-27T03:31:12.438Z,101864.63
2023-04-27T03:33:44.296Z,101877.06
2023-04-27T03:36:12.642Z,101877.31
2023-04-27T03:38:43.284Z,101877.41
2023-04-27T03:41:12.669Z,101873.84
2023-04-27T03:43:41.095Z,101878.31
2023-04-27T03:46:09.568Z,101876.66
2023-04-27T03:48:37.564Z,101878.50
2023-04-27T03:51:06.005Z,101882.97
2023-04-27T03:53:35.066Z,101885.78
2023-04-27T03:56:04.837Z,101878.84
2023-04-27T03:58:34.389Z,101892.31
2023-04-27T04:01:02.374Z,101893.94
2023-04-27T04:03:30.994Z,101888.44
2023-04-27T04:05:59.163Z,101890.19
2023-04-27T04:08:27.217Z,101884.94
2023-04-27T04:10:55.261Z,101887.69
2023-04-27T04:13:23.415Z,101881.72
2023-04-27T04:16:02.247Z,101884.22
2023-04-27T04:18:30.621Z,101887.69
2023-04-27T04:20:58.562Z,101888.31
2023-04-27T04:23:27.405Z,101891.66
2023-04-27T04:25:56.376Z,101892.41
2023-04-27T04:28:24.337Z,101899.44
2023-04-27T04:30:53.707Z,101900.38
2023-04-27T04:33:21.620Z,101907.56
2023-04-27T04:35:49.499Z,101901.53
2023-04-27T04:38:17.468Z,101912.06
2023-04-27T04:40:46.094Z,101917.81
2023-04-27T04:43:14.367Z,101915.06
2023-04-27T04:45:45.128Z,101918.34
2023-04-27T04:48:18.769Z,101913.66
2023-04-27T04:50:46.784Z,101912.66
2023-04-27T04:53:14.703Z,101908.72
2023-04-27T04:55:46.457Z,101900.59
2023-04-27T04:58:14.590Z,101923.00
2023-04-27T05:00:42.512Z,101923.78
2023-04-27T05:03:10.951Z,101924.31
2023-04-27T05:05:41.029Z,101925.00
2023-04-27T05:08:08.957Z,101923.31
2023-04-27T05:10:37.067Z,101926.47
2023-04-27T05:13:07.094Z,101932.41
2023-04-27T05:15:35.253Z,101931.47
2023-04-27T05:18:03.253Z,101924.34
2023-04-27T05:20:31.275Z,101927.75
2023-04-27T05:23:00.749Z,101924.97
2023-04-27T05:25:31.644Z,101927.28
2023-04-27T05:27:59.752Z,101924.81
2023-04-27T05:30:28.255Z,101932.22
2023-04-27T05:32:56.665Z,101939.75
2023-04-27T05:35:24.736Z,101935.34
2023-04-27T05:37:52.707Z,101929.22
2023-04-27T05:40:22.356Z,101932.69
2023-04-27T05:42:50.451Z,101927.44
2023-04-27T05:45:18.964Z,101916.72
2023-04-27T05:47:47.027Z,101921.31
2023-04-27T05:50:15.228Z,101924.78
2023-04-27T05:52:43.150Z,101923.00
2023-04-27T05:55:11.312Z,101925.72
2023-04-27T05:57:41.429Z,101926.84
2023-04-27T06:00:10.940Z,101930.16
2023-04-27T06:02:39.103Z,101934.25
2023-04-27T06:05:08.302Z,101932.75
2023-04-27T06:07:37.563Z,101943.97
2023-04-27T06:10:06.116Z,101942.13
2023-04-27T06:12:34.064Z,101943.66
2023-04-27T06:15:08.148Z,101946.75
2023-04-27T06:17:36.462Z,101946.97
2023-04-27T06:20:06.918Z,101957.50
2023-04-27T06:22:35.164Z,101951.22
2023-04-27T06:25:03.391Z,101950.75
2023-04-27T06:27:31.293Z,101957.88
2023-04-27T06:30:00.004Z,101951.97
2023-04-27T06:32:29.402Z,101952.75
2023-04-27T06:34:57.336Z,101949.59
2023-04-27T06:37:25.545Z,101954.75
2023-04-27T06:39:53.479Z,101948.50
2023-04-27T06:42:21.394Z,101952.03
2023-04-27T06:44:49.401Z,101948.03
2023-04-27T06:47:17.316Z,101944.69
2023-04-27T06:49:47.963Z,101947.91
2023-04-27T06:52:17.746Z,101949.06
2023-04-27T06:54:45.857Z,101942.13
2023-04-27T06:57:13.905Z,101935.53
2023-04-27T06:59:41.918Z,101929.81
2023-04-27T07:02:09.863Z,101924.88
2023-04-27T07:04:38.351Z,101922.63
2023-04-27T07:07:07.917Z,101918.59
2023-04-27T07:09:35.817Z,101923.44
2023-04-27T07:12:04.074Z,101933.06
2023-04-27T07:14:33.703Z,101934.53
2023-04-27T07:17:01.745Z,101942.16
2023-04-27T07:19:29.764Z,101939.69
2023-04-27T07:21:58.011Z,101936.56
2023-04-27T07:24:27.261Z,101946.47
2023-04-27T07:26:57.669Z,101944.66
2023-04-27T07:29:28.496Z,101957.28
2023-04-27T07:31:56.842Z,101955.06
2023-04-27T07:34:25.180Z,101953.53
2023-04-27T07:36:55.257Z,101965.41
2023-04-27T07:39:23.911Z,101960.94
2023-04-27T07:41:53.286Z,101962.56
2023-04-27T07:44:21.714Z,101974.34
2023-04-27T07:46:50.201Z,101972.28
2023-04-27T07:49:18.396Z,101968.22
2023-04-27T07:51:46.419Z,101969.09
2023-04-27T07:54:14.690Z,101959.72
2023-04-27T07:56:43.850Z,101964.16
2023-04-27T07:59:15.059Z,101970.44
2023-04-27T08:01:43.145Z,101977.03
2023-04-27T08:04:12.655Z,101981.97
2023-04-27T08:06:41.347Z,101981.31
2023-04-27T08:09:10.065Z,101976.75
2023-04-27T08:11:37.942Z,101964.56
2023-04-27T08:14:06.079Z,101966.59
2023-04-27T08:16:35.429Z,101964.06
2023-04-27T08:19:03.511Z,101960.09
2023-04-27T08:21:31.475Z,101954.00
2023-04-27T08:23:59.318Z,101946.84
2023-04-27T08:26:27.177Z,101943.84
2023-04-27T08:28:56.459Z,101952.53
2023-04-27T08:31:24.387Z,101954.53
2023-04-27T08:33:53.939Z,101949.84
2023-04-27T08:36:25.061Z,101967.94
2023-04-27T08:38:53.013Z,101959.03
2023-04-27T08:41:22.598Z,101963.81
2023-04-27T08:43:51.371Z,101954.75
2023-04-27T08:46:21.136Z,101952.84
2023-04-27T08:48:51.439Z,101953.72
2023-04-27T08:51:21.839Z,101948.84
2023-04-27T08:53:51.744Z,101932.91
2023-04-27T08:56:20.192Z,101929.53
2023-04-27T08:58:48.272Z,101931.34
2023-04-27T09:01:16.899Z,101932.78
2023-04-27T09:03:46.860Z,101939.97
2023-04-27T09:06:15.522Z,101945.94
2023-04-27T09:08:47.165Z,101946.09
2023-04-27T09:11:16.022Z,101949.41
2023-04-27T09:13:46.205Z,101957.28
2023-04-27T09:16:15.371Z,101954.31
2023-04-27T09:18:45.171Z,101952.66
2023-04-27T09:21:24.001Z,101957.00
2023-04-27T09:23:53.807Z,101948.28
2023-04-27T09:26:23.552Z,101944.31
2023-04-27T09:28:52.742Z,101934.69
2023-04-27T09:31:21.147Z,101932.28
2023-04-27T09:33:56.588Z,101926.78
2023-04-27T09:36:28.624Z,101922.09
2023-04-27T09:39:01.208Z,101920.13
2023-04-27T09:41:29.573Z,101928.78
2023-04-27T09:43:58.640Z,101920.66
2023-04-27T09:46:29.464Z,101924.31
2023-04-27T09:48:58.769Z,101925.16
2023-04-27T09:51:28.527Z,101925.00
2023-04-27T09:54:01.892Z,101922.97
2023-04-27T09:56:42.408Z,101922.16
2023-04-27T09:59:34.617Z,101923.88
2023-04-27T10:02:17.190Z,101918.69
2023-04-27T10:05:11.940Z,101929.16
2023-04-27T10:07:41.572Z,101931.34
2023-04-27T10:10:18.553Z,101932.63
2023-04-27T10:12:57.760Z,101922.19
2023-04-27T10:15:30.354Z,101925.25
2023-04-27T10:18:06.129Z,101933.84
2023-04-27T10:20:36.298Z,101927.03
2023-04-27T10:23:04.817Z,101924.25
2023-04-27T10:25:41.581Z,101918.91
2023-04-27T10:28:09.579Z,101925.97
2023-04-27T10:30:39.708Z,101929.63
2023-04-27T10:33:09.708Z,101920.03
2023-04-27T10:35:39.977Z,101933.50
2023-04-27T10:38:09.669Z,101924.53
2023-04-27T10:40:39.546Z,101930.19
2023-04-27T10:43:12.114Z,101935.22
2023-04-27T10:45:40.411Z,101939.53
2023-04-27T10:48:08.595Z,101932.06
2023-04-27T10:50:37.170Z,101939.97
2023-04-27T10:53:07.103Z,101940.91
2023-04-27T10:55:36.294Z,101936.25
2023-04-27T10:58:05.684Z,101938.22
2023-04-27T11:00:36.666Z,101943.03
2023-04-27T11:03:17.036Z,101938.00
2023-04-27T11:05:47.969Z,101941.22
2023-04-27T11:08:18.225Z,101939.25
2023-04-27T11:10:49.931Z,101944.03
2023-04-27T11:13:24.423Z,101934.50
2023-04-27T11:15:55.325Z,101946.16
2023-04-27T11:18:25.025Z,101950.00
2023-04-27T11:20:54.600Z,101943.16
2023-04-27T11:23:27.519Z,101948.88
2023-04-27T11:25:55.880Z,101946.59
2023-04-27T11:28:26.150Z,101943.69
2023-04-27T11:30:58.077Z,101951.28
2023-04-27T11:33:26.402Z,101954.78
2023-04-27T11:35:54.323Z,101942.78
2023-04-27T11:38:22.977Z,101948.88
2023-04-27T11:41:01.778Z,101939.53
2023-04-27T11:43:33.400Z,101949.91
2023-04-27T11:46:04.574Z,101940.03
2023-04-27T11:48:32.666Z,101946.44
2023-04-27T11:51:01.380Z,101944.81
2023-04-27T11:53:34.375Z,101945.16
2023-04-27T11:56:05.347Z,101945.75
2023-04-27T11:58:37.008Z,101948.75
2023-04-27T12:01:05.494Z,101946.81
2023-04-27T12:03:33.528Z,101938.44
2023-04-27T12:08:32.600Z,101941.53
2023-04-27T12:11:00.586Z,101943.75
2023-04-27T12:13:28.629Z,101941.44
2023-04-27T12:15:59.100Z,101935.56
2023-04-27T12:18:28.952Z,101943.16
2023-04-27T12:20:59.003Z,101948.72
2023-04-27T12:23:31.047Z,101940.44
2023-04-27T12:25:58.872Z,101947.16
2023-04-27T12:28:26.724Z,101952.34
2023-04-27T12:30:55.061Z,101950.44
2023-04-27T12:33:24.464Z,101947.75
2023-04-27T12:35:52.432Z,101951.31
2023-04-27T12:38:20.435Z,101950.88
2023-04-27T12:40:48.722Z,101956.91
2023-04-27T12:43:16.897Z,101964.16
2023-04-27T12:45:44.768Z,101956.50
2023-04-27T12:48:12.739Z,101964.53
2023-04-27T12:50:42.221Z,101952.19
2023-04-27T12:53:10.228Z,101961.28
2023-04-27T12:55:38.421Z,101966.84
2023-04-27T12:58:06.504Z,101965.00
2023-04-27T13:00:35.424Z,101968.19
2023-04-27T13:03:04.770Z,101973.34
2023-04-27T13:05:32.826Z,101966.44
2023-04-27T13:08:02.228Z,101961.19
2023-04-27T13:10:30.450Z,101964.63
2023-04-27T13:12:59.706Z,101968.66
2023-04-27T13:15:28.589Z,101967.53
2023-04-27T13:17:58.162Z,101974.38
2023-04-27T13:20:26.168Z,101962.06
2023-04-27T13:22:54.162Z,101977.44
2023-04-27T13:25:23.730Z,101979.59
2023-04-27T13:27:51.722Z,101984.44
2023-04-27T13:30:19.793Z,101989.94
2023-04-27T13:32:48.002Z,101991.31
2023-04-27T13:35:15.924Z,101988.50
2023-04-27T13:37:43.889Z,101992.81
2023-04-27T13:40:12.719Z,101999.00
2023-04-27T13:42:42.094Z,101990.38
2023-04-27T13:45:11.096Z,101990.47
2023-04-27T13:47:39.102Z,101988.16
2023-04-27T13:50:08.779Z,101984.56
2023-04-27T13:52:37.776Z,101984.34
2023-04-27T13:55:06.789Z,101976.16
2023-04-27T13:57:34.746Z,101973.66
2023-04-27T14:00:07.882Z,101970.66
2023-04-27T14:02:36.355Z,101969.59
2023-04-27T14:05:05.112Z,101969.31
2023-04-27T14:07:34.396Z,101960.13
2023-04-27T14:10:02.379Z,101968.59
2023-04-27T14:12:31.573Z,101958.31
2023-04-27T14:14:59.615Z,101948.84
2023-04-27T14:17:28.813Z,101948.06
2023-04-27T14:19:56.684Z,101954.75
2023-04-27T14:22:27.644Z,101950.84
2023-04-27T14:24:56.478Z,101944.00
2023-04-27T14:27:24.627Z,101943.75
2023-04-27T14:29:52.992Z,101939.44
2023-04-27T14:32:21.416Z,101942.66
2023-04-27T14:34:50.840Z,101940.84
2023-04-27T14:37:19.389Z,101938.31
2023-04-27T14:39:47.433Z,101933.38
2023-04-27T14:42:15.355Z,101933.78
2023-04-27T14:44:43.279Z,101936.00
2023-04-27T14:47:11.219Z,101927.38
2023-04-27T14:49:39.100Z,101934.41
2023-04-27T14:52:08.716Z,101926.91
2023-04-27T14:54:38.472Z,101932.59
2023-04-27T14:57:06.461Z,101935.13
2023-04-27T14:59:35.298Z,101929.22
2023-04-27T15:02:03.771Z,101926.41
2023-04-27T15:04:31.968Z,101930.03
2023-04-27T15:06:59.998Z,101930.69
2023-04-27T15:09:29.240Z,101927.94
2023-04-27T15:11:57.117Z,101934.03
2023-04-27T15:14:25.129Z,101934.72
2023-04-27T15:16:53.203Z,101933.00
2023-04-27T15:19:21.132Z,101925.25
2023-04-27T15:21:50.119Z,101930.69
2023-04-27T15:24:17.944Z,101927.56
2023-04-27T15:26:48.495Z,101933.63
2023-04-27T15:29:16.771Z,101929.72
2023-04-27T15:31:45.437Z,101925.84
2023-04-27T15:34:13.656Z,101911.69
2023-04-27T15:36:41.995Z,101913.69
2023-04-27T15:39:10.326Z,101914.22
2023-04-27T15:41:38.378Z,101916.09
2023-04-27T15:44:07.911Z,101917.03
2023-04-27T15:46:36.472Z,101909.78
2023-04-27T15:49:04.533Z,101911.53
2023-04-27T15:51:32.591Z,101918.00
2023-04-27T15:54:00.548Z,101921.63
2023-04-27T15:56:30.633Z,101912.81
2023-04-27T15:58:59.023Z,101907.00
2023-04-27T16:01:28.366Z,101914.97
2023-04-27T16:03:56.581Z,101914.06
2023-04-27T16:06:30.414Z,101910.91
2023-04-27T16:08:58.289Z,101913.78
2023-04-27T16:11:26.165Z,101909.69
2023-04-27T16:13:54.196Z,101907.00
2023-04-27T16:16:22.158Z,101907.53
2023-04-27T16:18:51.598Z,101901.97
2023-04-27T16:21:19.617Z,101903.44
2023-04-27T16:23:47.824Z,101898.00
2023-04-27T16:26:15.978Z,101906.22
2023-04-27T16:28:45.295Z,101906.91
2023-04-27T16:31:13.891Z,101897.31
2023-04-27T16:33:41.935Z,101897.31
2023-04-27T16:36:12.423Z,101892.28
2023-04-27T16:38:40.384Z,101903.78
2023-04-27T16:41:08.323Z,101900.13
2023-04-27T16:43:36.319Z,101898.50
2023-04-27T16:46:04.212Z,101899.59
2023-04-27T16:48:32.345Z,101904.25
2023-04-27T16:51:01.096Z,101899.16
2023-04-27T16:53:30.928Z,101899.38
2023-04-27T16:56:01.364Z,101905.78
2023-04-27T16:58:29.629Z,101902.25
2023-04-27T17:00:58.155Z,101906.81
2023-04-27T17:03:26.451Z,101907.13
2023-04-27T17:05:54.530Z,101906.50
2023-04-27T17:08:22.451Z,101910.72
2023-04-27T17:10:51.756Z,101910.31
2023-04-27T17:13:19.602Z,101909.13
2023-04-27T17:15:48.056Z,101910.47
2023-04-27T17:18:15.980Z,101907.81
2023-04-27T17:20:43.893Z,101911.00
2023-04-27T17:23:11.769Z,101905.66
2023-04-27T17:25:39.881Z,101911.28
2023-04-27T17:28:09.275Z,101912.53
2023-04-27T17:30:37.431Z,101908.03
2023-04-27T17:33:07.781Z,101909.97
2023-04-27T17:35:35.737Z,101904.22
2023-04-27T17:38:03.605Z,101900.38
2023-04-27T17:40:32.129Z,101889.22
2023-04-27T17:43:00.242Z,101896.47
2023-04-27T17:45:29.730Z,101893.66
2023-04-27T17:47:57.724Z,101897.06
2023-04-27T17:50:26.345Z,101897.97
2023-04-27T17:52:54.604Z,101896.88
2023-04-27T17:55:23.241Z,101899.13
2023-04-27T17:57:51.579Z,101888.88
2023-04-27T18:00:19.931Z,101894.38
2023-04-27T18:02:50.022Z,101894.47
2023-04-27T18:05:18.422Z,101893.53
2023-04-27T18:07:47.450Z,101899.31
2023-04-27T18:10:15.453Z,101896.00
2023-04-27T18:12:43.646Z,101905.09
2023-04-27T18:15:11.988Z,101902.25
2023-04-27T18:17:39.963Z,101901.03
2023-04-27T18:20:10.895Z,101904.19
2023-04-27T18:22:40.204Z,101903.78
2023-04-27T18:25:09.563Z,101905.59
2023-04-27T18:27:38.445Z,101906.72
2023-04-27T18:30:08.343Z,101906.81
2023-04-27T18:32:36.576Z,101894.59
2023-04-27T18:35:05.690Z,101906.69
2023-04-27T18:37:35.107Z,101900.44
2023-04-27T18:40:04.336Z,101904.91
2023-04-27T18:42:32.345Z,101901.34
2023-04-27T18:45:01.892Z,101904.78
2023-04-27T18:47:29.889Z,101899.44
2023-04-27T18:49:57.796Z,101898.44
2023-04-27T18:52:26.280Z,101904.41
2023-04-27T18:54:56.090Z,101908.78
2023-04-27T18:57:28.484Z,101905.53
2023-04-27T18:59:56.735Z,101910.25
2023-04-27T19:02:25.901Z,101911.31
2023-04-27T19:05:11.203Z,101907.34
2023-04-27T19:07:40.741Z,101909.94
2023-04-27T19:10:11.600Z,101911.66
2023-04-27T19:12:39.703Z,101914.28
2023-04-27T19:15:08.370Z,101921.25
2023-04-27T19:17:38.424Z,101916.94
2023-04-27T19:20:07.557Z,101913.34
2023-04-27T19:22:36.841Z,101907.53
2023-04-27T19:25:05.334Z,101916.25
2023-04-27T19:27:34.709Z,101914.28
2023-04-27T19:30:04.178Z,101908.00
2023-04-27T19:32:32.292Z,101911.66
2023-04-27T19:35:00.487Z,101917.38
2023-04-27T19:37:29.293Z,101919.31
2023-04-27T19:39:57.327Z,101918.44
2023-04-27T19:42:26.308Z,101916.97
2023-04-27T19:44:55.844Z,101914.38
2023-04-27T19:47:24.249Z,101915.25
2023-04-27T19:49:52.210Z,101919.06
2023-04-27T19:52:20.381Z,101918.41
2023-04-27T19:54:52.549Z,101910.25
2023-04-27T19:57:20.488Z,101907.59
2023-04-27T19:59:48.541Z,101905.81
2023-04-27T20:02:18.330Z,101908.66
2023-04-27T20:04:49.257Z,101898.97
2023-04-27T20:07:17.713Z,101896.25
2023-04-27T20:09:46.754Z,101896.44
2023-04-27T20:12:34.979Z,101897.38
2023-04-27T20:15:03.514Z,101897.63
2023-04-27T20:17:32.986Z,101905.06
2023-04-27T20:20:01.406Z,101895.28
2023-04-27T20:22:29.642Z,101905.78
2023-04-27T20:24:59.261Z,101902.34
2023-04-27T20:27:27.264Z,101898.84
2023-04-27T20:29:55.848Z,101895.53
2023-04-27T20:32:23.819Z,101899.25
2023-04-27T20:34:53.427Z,101894.06
2023-04-27T20:37:23.362Z,101892.34
2023-04-27T20:39:52.054Z,101900.44
2023-04-27T20:42:20.897Z,101895.03
2023-04-27T20:44:49.176Z,101893.91
2023-04-27T20:47:17.369Z,101898.47
2023-04-27T20:49:45.266Z,101891.25
2023-04-27T20:52:14.656Z,101889.41
2023-04-27T20:54:42.664Z,101886.06
2023-04-27T20:57:13.769Z,101880.81
2023-04-27T20:59:42.488Z,101883.53
2023-04-27T21:02:11.066Z,101888.72
2023-04-27T21:04:39.528Z,101893.16
2023-04-27T21:07:07.762Z,101903.03
2023-04-27T21:09:38.783Z,101903.31
2023-04-27T21:12:07.040Z,101890.78
2023-04-27T21:14:35.318Z,101893.50
2023-04-27T21:17:03.529Z,101889.78
2023-04-27T21:19:31.950Z,101883.66
2023-04-27T21:21:59.899Z,101891.53
2023-04-27T21:24:27.850Z,101882.41
2023-04-27T21:26:57.979Z,101890.41
2023-04-27T21:29:25.925Z,101888.66
2023-04-27T21:31:56.006Z,101881.69
2023-04-27T21:34:24.270Z,101870.16
2023-04-27T21:36:52.273Z,101881.78
2023-04-27T21:39:20.535Z,101876.47
2023-04-27T21:41:48.613Z,101880.63
2023-04-27T21:44:18.032Z,101882.38
2023-04-27T21:46:46.129Z,101868.25
2023-04-27T21:49:14.323Z,101872.47
2023-04-27T21:51:42.225Z,101873.31
2023-04-27T21:54:10.159Z,101871.66
2023-04-27T21:56:38.648Z,101865.81
2023-04-27T21:59:06.589Z,101865.72
2023-04-27T22:01:37.872Z,101862.47
2023-04-27T22:04:06.748Z,101856.56
2023-04-27T22:06:34.872Z,101856.19
2023-04-27T22:09:02.992Z,101859.97
2023-04-27T22:11:31.772Z,101867.88
2023-04-27T22:13:59.691Z,101864.47
2023-04-27T22:16:30.151Z,101856.50
2023-04-27T22:18:59.931Z,101857.75
2023-04-27T22:21:28.907Z,101858.72
2023-04-27T22:23:57.061Z,101860.25
2023-04-27T22:26:25.108Z,101858.34
2023-04-27T22:28:53.308Z,101852.31
2023-04-27T22:31:21.919Z,101847.19
2023-04-27T22:33:49.924Z,101844.28
2023-04-27T22:36:19.302Z,101840.25
2023-04-27T22:38:47.307Z,101843.78
2023-04-27T22:41:15.249Z,101840.41
2023-04-27T22:43:43.210Z,101844.72
2023-04-27T22:46:11.184Z,101836.22
2023-04-27T22:48:39.356Z,101839.09
2023-04-27T22:51:09.968Z,101842.44
2023-04-27T22:53:39.394Z,101838.91
2023-04-27T22:56:08.113Z,101838.72
2023-04-27T22:58:36.677Z,101839.03
2023-04-27T23:01:05.145Z,101842.50
2023-04-27T23:03:33.274Z,101841.56
2023-04-27T23:06:14.535Z,101834.44
2023-04-27T23:08:45.995Z,101831.19
2023-04-27T23:11:15.606Z,101830.47
2023-04-27T23:13:44.081Z,101824.53
2023-04-27T23:16:12.031Z,101827.00
2023-04-27T23:18:40.152Z,101827.88
2023-04-27T23:21:08.142Z,101834.53
2023-04-27T23:23:36.070Z,101826.13
2023-04-27T23:26:12.346Z,101829.72
2023-04-27T23:28:40.945Z,101827.47
2023-04-27T23:31:08.868Z,101824.69
2023-04-27T23:33:37.080Z,101824.06
2023-04-27T23:36:05.662Z,101817.94
2023-04-27T23:38:33.639Z,101813.31
2023-04-27T23:41:01.643Z,101814.56
2023-04-27T23:43:31.649Z,101811.69
2023-04-27T23:45:59.700Z,101806.13
2023-04-27T23:48:27.876Z,101803.94
2023-04-27T23:51:00.867Z,101799.53
2023-04-27T23:53:29.173Z,101797.00
2023-04-27T23:55:57.371Z,101800.13
2023-04-27T23:58:26.164Z,101797.38
